Nizhnevartovsk, Russia
Current Conditions -  °F | °C
As of 5:30 AM on Tuesday 23 Dec 2014 (Local Time) from USNN Reporting Station
Overcast Overcast  
Wind Chill: 14°   Ceiling: 500
Heat Index: 25°   Visibility: 6mi
Dew Point: 21°   Wind: 11mph
Humidity: 86%   Direction: 180°S
Pressure: 29.94"   Gusts: NA
Location:  60.93°N, 76.57°E
Report Text: USNN 230030Z 18005MPS 9999 OVC005 M04/M06 Q1014 TEMPO OVC005RMK QFE756 QBB170 2139//37
Loading
Personal Weather Stations






























Interactive Weather Map New forecast layout! Learn more

10-Day Weather Forecast

Advertisements
Track Severe Weather on mobile